TimeCST,TemperatureF,Dew PointF,Humidity,Sea Level PressureIn,VisibilityMPH,Wind Direction,Wind SpeedMPH,Gust SpeedMPH,PrecipitationIn,Events,Conditions,WindDirDegrees,DateUTC
12:15 AM,72.0,69.8,93,29.85,7.0,SSE,10.4,-,N/A,,Overcast,150,2013-01-12 06:15:00
12:35 AM,72.1,69.8,92,29.84,7.0,SSE,11.5,-,N/A,,Overcast,150,2013-01-12 06:35:00
12:55 AM,72.1,69.8,92,29.83,7.0,SE,16.1,-,N/A,,Overcast,140,2013-01-12 06:55:00
1:15 AM,72.0,69.6,92,29.82,7.0,SE,15.0,-,N/A,,Overcast,140,2013-01-12 07:15:00
1:55 AM,72.1,69.8,92,29.81,7.0,SE,13.8,-,N/A,,Overcast,140,2013-01-12 07:55:00
2:15 AM,72.1,69.8,92,29.83,7.0,SSE,12.7,-,N/A,,Overcast,150,2013-01-12 08:15:00
2:35 AM,72.5,69.8,91,29.83,7.0,SSE,15.0,-,N/A,,Overcast,150,2013-01-12 08:35:00
2:55 AM,72.0,69.4,92,29.81,7.0,SSE,16.1,20.7,N/A,,Scattered Clouds,150,2013-01-12 08:55:00
3:15 AM,71.8,69.1,91,29.80,7.0,SSE,17.3,-,N/A,,Clear,150,2013-01-12 09:15:00
3:35 AM,72.0,69.3,91,29.78,7.0,SE,15.0,-,N/A,,Clear,140,2013-01-12 09:35:00
3:55 AM,71.8,69.1,91,29.78,7.0,SSE,12.7,-,N/A,,Scattered Clouds,150,2013-01-12 09:55:00
4:15 AM,72.1,69.3,91,29.77,7.0,SSE,12.7,-,N/A,,Scattered Clouds,150,2013-01-12 10:15:00
4:35 AM,71.8,69.3,92,29.76,7.0,SSE,13.8,-,N/A,,Clear,150,2013-01-12 10:35:00
4:55 AM,72.1,69.4,91,29.76,7.0,SE,15.0,-,N/A,,Clear,140,2013-01-12 10:55:00
5:15 AM,71.8,69.3,92,29.76,7.0,SSE,15.0,-,N/A,,Clear,150,2013-01-12 11:15:00
5:35 AM,72.0,69.3,91,29.76,7.0,SSE,13.8,-,N/A,,Scattered Clouds,150,2013-01-12 11:35:00
5:55 AM,71.6,68.9,91,29.76,7.0,SE,12.7,-,N/A,,Scattered Clouds,140,2013-01-12 11:55:00
6:15 AM,72.0,69.4,92,29.76,7.0,SSE,17.3,-,N/A,,Mostly Cloudy,150,2013-01-12 12:15:00
6:35 AM,72.0,69.6,92,29.76,7.0,SSE,18.4,-,N/A,,Mostly Cloudy,150,2013-01-12 12:35:00
6:55 AM,72.1,69.8,92,29.76,7.0,SSE,18.4,24.2,N/A,,Mostly Cloudy,160,2013-01-12 12:55:00
7:15 AM,72.0,69.8,93,29.76,7.0,SSE,18.4,26.5,N/A,,Overcast,150,2013-01-12 13:15:00
7:35 AM,71.6,69.6,93,29.77,5.0,SSE,18.4,24.2,N/A,,Overcast,150,2013-01-12 13:35:00
7:55 AM,71.6,69.3,92,29.78,4.0,SSE,17.3,23.0,N/A,,Overcast,160,2013-01-12 13:55:00
8:15 AM,71.6,69.6,93,29.78,3.0,SSE,19.6,25.3,N/A,,Overcast,160,2013-01-12 14:15:00
8:35 AM,71.6,69.6,93,29.78,2.5,SSE,20.7,29.9,N/A,,Overcast,160,2013-01-12 14:35:00
8:55 AM,71.6,69.8,94,29.79,3.0,SSE,17.3,24.2,N/A,,Overcast,160,2013-01-12 14:55:00
9:15 AM,71.6,69.4,93,29.78,3.0,SSE,19.6,25.3,N/A,,Overcast,150,2013-01-12 15:15:00
9:55 AM,72.5,70.2,92,29.79,5.0,SSE,19.6,26.5,N/A,,Overcast,160,2013-01-12 15:55:00
10:15 AM,73.6,70.3,90,29.78,7.0,SSE,20.7,-,N/A,,Overcast,160,2013-01-12 16:15:00
10:35 AM,74.5,70.7,88,29.78,7.0,SSE,21.9,-,N/A,,Overcast,160,2013-01-12 16:35:00
10:55 AM,76.1,71.1,84,29.77,7.0,South,20.7,25.3,N/A,,Mostly Cloudy,170,2013-01-12 16:55:00
11:15 AM,77.0,71.2,82,29.76,7.0,SSE,15.0,-,N/A,,Scattered Clouds,160,2013-01-12 17:15:00
11:55 AM,82.6,69.3,64,29.74,10.0,South,26.5,31.1,N/A,,Mostly Cloudy,180,2013-01-12 17:55:00
12:15 PM,83.3,68.4,61,29.73,10.0,South,29.9,35.7,N/A,,Scattered Clouds,170,2013-01-12 18:15:00
12:35 PM,84.2,68.0,58,29.71,10.0,South,31.1,36.8,N/A,,Clear,180,2013-01-12 18:35:00
12:55 PM,84.2,67.8,58,29.71,10.0,South,25.3,33.4,N/A,,Clear,190,2013-01-12 18:55:00
1:15 PM,84.2,67.5,57,29.70,10.0,South,24.2,32.2,N/A,,Clear,190,2013-01-12 19:15:00
1:35 PM,85.1,67.6,56,29.69,10.0,South,26.5,31.1,N/A,,Clear,180,2013-01-12 19:35:00
1:55 PM,85.5,67.3,54,29.68,10.0,South,29.9,-,N/A,,Clear,180,2013-01-12 19:55:00
2:15 PM,84.6,67.5,56,29.66,10.0,South,21.9,31.1,N/A,,Clear,170,2013-01-12 20:15:00
2:35 PM,85.1,67.6,56,29.67,10.0,South,23.0,29.9,N/A,,Clear,180,2013-01-12 20:35:00
2:55 PM,84.7,67.6,56,29.65,10.0,South,24.2,29.9,N/A,,Clear,170,2013-01-12 20:55:00
3:15 PM,82.8,69.3,64,29.64,10.0,SSE,18.4,-,N/A,,Clear,150,2013-01-12 21:15:00
3:35 PM,81.5,69.4,67,29.66,10.0,SSE,19.6,-,N/A,,Clear,160,2013-01-12 21:35:00
3:55 PM,80.8,70.0,70,29.67,10.0,SSE,11.5,19.6,N/A,,Clear,160,2013-01-12 21:55:00
4:15 PM,79.2,70.2,74,29.66,10.0,SE,18.4,-,N/A,,Clear,140,2013-01-12 22:15:00
4:35 PM,78.3,70.0,76,29.67,7.0,SSE,17.3,-,N/A,,Clear,150,2013-01-12 22:35:00
4:55 PM,77.2,69.8,78,29.67,7.0,SSE,18.4,-,N/A,,Clear,150,2013-01-12 22:55:00
5:15 PM,76.3,70.0,81,29.66,7.0,SSE,19.6,25.3,N/A,,Clear,150,2013-01-12 23:15:00
5:35 PM,75.4,69.6,82,29.67,7.0,SSE,17.3,-,N/A,,Clear,150,2013-01-12 23:35:00
5:55 PM,74.8,69.8,84,29.67,7.0,SSE,18.4,21.9,N/A,,Clear,160,2013-01-12 23:55:00
6:15 PM,74.3,69.8,86,29.67,7.0,SSE,21.9,25.3,N/A,,Clear,150,2013-01-13 00:15:00
6:35 PM,73.9,70.0,87,29.67,7.0,SSE,15.0,-,N/A,,Clear,150,2013-01-13 00:35:00
6:55 PM,73.8,70.0,88,29.67,7.0,SSE,13.8,-,N/A,,Clear,150,2013-01-13 00:55:00
7:15 PM,73.4,70.0,89,29.67,7.0,SSE,15.0,-,N/A,,Clear,150,2013-01-13 01:15:00
7:35 PM,73.0,69.8,90,29.67,7.0,SE,13.8,-,N/A,,Clear,140,2013-01-13 01:35:00
7:55 PM,73.0,70.0,90,29.67,7.0,SSE,13.8,-,N/A,,Clear,150,2013-01-13 01:55:00
8:15 PM,73.0,70.0,90,29.68,7.0,SSE,11.5,-,N/A,,Clear,150,2013-01-13 02:15:00
8:35 PM,73.0,70.2,91,29.68,7.0,SSE,9.2,-,N/A,,Clear,160,2013-01-13 02:35:00
8:55 PM,73.4,70.2,90,29.68,7.0,SSE,10.4,-,N/A,,Clear,160,2013-01-13 02:55:00
9:15 PM,73.0,70.2,91,29.68,5.0,SSE,9.2,-,N/A,,Clear,160,2013-01-13 03:15:00
9:35 PM,72.7,69.8,91,29.68,5.0,SSE,9.2,-,N/A,,Clear,150,2013-01-13 03:35:00
9:55 PM,72.5,69.8,91,29.70,5.0,SSE,5.8,-,N/A,,Scattered Clouds,160,2013-01-13 03:55:00
10:15 PM,72.5,69.8,91,29.70,5.0,SSE,5.8,-,N/A,,Mostly Cloudy,150,2013-01-13 04:15:00
10:35 PM,72.0,69.3,91,29.71,5.0,SE,4.6,-,N/A,,Overcast,140,2013-01-13 04:35:00
10:55 PM,71.8,69.3,92,29.70,5.0,SSE,6.9,-,N/A,,Overcast,150,2013-01-13 04:55:00
11:15 PM,72.1,69.6,92,29.71,5.0,SSE,3.5,-,N/A,,Overcast,150,2013-01-13 05:15:00
11:35 PM,72.1,69.8,92,29.72,5.0,Calm,Calm,-,N/A,,Overcast,0,2013-01-13 05:35:00
11:55 PM,72.0,69.8,93,29.71,5.0,ESE,3.5,-,N/A,,Overcast,110,2013-01-13 05:55:00